sensor_id;sensor_type;location;lat;lon;timestamp;temperature;humidity
65692;DHT22;52411;52.716;6.696;2023-05-03T00:01:45;3.10;99.90
65692;DHT22;52411;52.716;6.696;2023-05-03T00:04:10;3.10;99.90
65692;DHT22;52411;52.716;6.696;2023-05-03T00:06:36;3.10;99.90
65692;DHT22;52411;52.716;6.696;2023-05-03T00:09:01;3.10;99.90
65692;DHT22;52411;52.716;6.696;2023-05-03T00:11:27;3.00;99.90
65692;DHT22;52411;52.716;6.696;2023-05-03T00:13:52;3.00;99.90
65692;DHT22;52411;52.716;6.696;2023-05-03T00:16:18;2.90;99.90
65692;DHT22;52411;52.716;6.696;2023-05-03T00:18:44;2.90;99.90
65692;DHT22;52411;52.716;6.696;2023-05-03T00:21:09;2.90;99.90
65692;DHT22;52411;52.716;6.696;2023-05-03T00:23:35;2.80;99.90
65692;DHT22;52411;52.716;6.696;2023-05-03T00:26:00;2.80;99.90
65692;DHT22;52411;52.716;6.696;2023-05-03T00:28:26;2.80;99.90
65692;DHT22;52411;52.716;6.696;2023-05-03T00:30:51;2.80;99.90
65692;DHT22;52411;52.716;6.696;2023-05-03T00:33:17;2.70;99.90
65692;DHT22;52411;52.716;6.696;2023-05-03T00:35:43;2.70;99.90
65692;DHT22;52411;52.716;6.696;2023-05-03T00:38:08;2.80;99.90
65692;DHT22;52411;52.716;6.696;2023-05-03T00:40:34;2.70;99.90
65692;DHT22;52411;52.716;6.696;2023-05-03T00:42:59;2.80;99.90
65692;DHT22;52411;52.716;6.696;2023-05-03T00:45:25;2.70;99.90
65692;DHT22;52411;52.716;6.696;2023-05-03T00:47:50;2.70;99.90
65692;DHT22;52411;52.716;6.696;2023-05-03T00:50:16;2.70;99.90
65692;DHT22;52411;52.716;6.696;2023-05-03T00:52:42;2.60;99.90
65692;DHT22;52411;52.716;6.696;2023-05-03T00:55:07;2.60;99.90
65692;DHT22;52411;52.716;6.696;2023-05-03T00:57:33;2.60;99.90
65692;DHT22;52411;52.716;6.696;2023-05-03T00:59:59;2.60;99.90
65692;DHT22;52411;52.716;6.696;2023-05-03T01:02:25;2.60;99.90
65692;DHT22;52411;52.716;6.696;2023-05-03T01:04:51;2.60;99.90
65692;DHT22;52411;52.716;6.696;2023-05-03T01:18:01;2.40;99.90
65692;DHT22;52411;52.716;6.696;2023-05-03T01:20:29;2.40;99.90
65692;DHT22;52411;52.716;6.696;2023-05-03T01:25:20;2.40;99.90
65692;DHT22;52411;52.716;6.696;2023-05-03T01:27:46;2.30;99.90
65692;DHT22;52411;52.716;6.696;2023-05-03T01:30:12;2.30;99.90
65692;DHT22;52411;52.716;6.696;2023-05-03T01:32:45;2.30;99.90
65692;DHT22;52411;52.716;6.696;2023-05-03T01:37:39;2.30;99.90
65692;DHT22;52411;52.716;6.696;2023-05-03T01:40:06;2.30;99.90
65692;DHT22;52411;52.716;6.696;2023-05-03T01:42:34;2.30;99.90
65692;DHT22;52411;52.716;6.696;2023-05-03T01:45:00;2.20;99.90
65692;DHT22;52411;52.716;6.696;2023-05-03T01:47:28;2.30;99.90
65692;DHT22;52411;52.716;6.696;2023-05-03T01:49:53;2.30;99.90
65692;DHT22;52411;52.716;6.696;2023-05-03T01:52:19;2.20;99.90
65692;DHT22;52411;52.716;6.696;2023-05-03T01:54:45;2.30;99.90
65692;DHT22;52411;52.716;6.696;2023-05-03T01:57:10;2.30;99.90
65692;DHT22;52411;52.716;6.696;2023-05-03T01:59:35;2.30;99.90
65692;DHT22;52411;52.716;6.696;2023-05-03T02:02:01;2.20;99.90
65692;DHT22;52411;52.716;6.696;2023-05-03T02:04:27;2.20;99.90
65692;DHT22;52411;52.716;6.696;2023-05-03T02:06:52;2.10;99.90
65692;DHT22;52411;52.716;6.696;2023-05-03T02:09:18;2.10;99.90
65692;DHT22;52411;52.716;6.696;2023-05-03T02:11:43;2.10;99.90
65692;DHT22;52411;52.716;6.696;2023-05-03T02:14:09;2.00;99.90
65692;DHT22;52411;52.716;6.696;2023-05-03T02:16:34;2.00;99.90
65692;DHT22;52411;52.716;6.696;2023-05-03T02:19:00;2.00;99.90
65692;DHT22;52411;52.716;6.696;2023-05-03T02:21:26;2.10;99.90
65692;DHT22;52411;52.716;6.696;2023-05-03T02:23:51;2.10;99.90
65692;DHT22;52411;52.716;6.696;2023-05-03T02:26:18;2.00;99.90
65692;DHT22;52411;52.716;6.696;2023-05-03T02:28:43;2.10;99.90
65692;DHT22;52411;52.716;6.696;2023-05-03T02:31:09;2.10;99.90
65692;DHT22;52411;52.716;6.696;2023-05-03T02:33:34;2.00;99.90
65692;DHT22;52411;52.716;6.696;2023-05-03T02:36:00;2.10;99.90
65692;DHT22;52411;52.716;6.696;2023-05-03T02:38:25;2.10;99.90
65692;DHT22;52411;52.716;6.696;2023-05-03T02:40:51;2.10;99.90
65692;DHT22;52411;52.716;6.696;2023-05-03T02:43:16;2.00;99.90
65692;DHT22;52411;52.716;6.696;2023-05-03T02:45:42;1.90;99.90
65692;DHT22;52411;52.716;6.696;2023-05-03T02:48:07;1.60;99.90
65692;DHT22;52411;52.716;6.696;2023-05-03T02:50:34;1.60;99.90
65692;DHT22;52411;52.716;6.696;2023-05-03T02:53:00;1.60;99.90
65692;DHT22;52411;52.716;6.696;2023-05-03T02:55:25;1.50;99.90
65692;DHT22;52411;52.716;6.696;2023-05-03T02:57:51;1.50;99.90
65692;DHT22;52411;52.716;6.696;2023-05-03T03:00:17;1.40;99.90
65692;DHT22;52411;52.716;6.696;2023-05-03T03:02:43;1.30;99.90
65692;DHT22;52411;52.716;6.696;2023-05-03T03:05:08;1.20;99.90
65692;DHT22;52411;52.716;6.696;2023-05-03T03:07:35;1.20;99.90
65692;DHT22;52411;52.716;6.696;2023-05-03T03:10:01;1.30;99.90
65692;DHT22;52411;52.716;6.696;2023-05-03T03:12:26;1.30;99.90
65692;DHT22;52411;52.716;6.696;2023-05-03T03:14:53;1.30;99.90
65692;DHT22;52411;52.716;6.696;2023-05-03T03:17:18;1.40;99.90
65692;DHT22;52411;52.716;6.696;2023-05-03T03:19:44;1.30;99.90
65692;DHT22;52411;52.716;6.696;2023-05-03T03:22:09;1.40;99.90
65692;DHT22;52411;52.716;6.696;2023-05-03T03:24:35;1.30;99.90
65692;DHT22;52411;52.716;6.696;2023-05-03T03:27:00;1.30;99.90
65692;DHT22;52411;52.716;6.696;2023-05-03T03:29:27;1.40;99.90
65692;DHT22;52411;52.716;6.696;2023-05-03T03:31:53;1.40;99.90
65692;DHT22;52411;52.716;6.696;2023-05-03T03:34:18;1.40;99.90
65692;DHT22;52411;52.716;6.696;2023-05-03T03:36:44;1.30;99.90
65692;DHT22;52411;52.716;6.696;2023-05-03T03:39:09;1.20;99.90
65692;DHT22;52411;52.716;6.696;2023-05-03T03:41:35;1.30;99.90
65692;DHT22;52411;52.716;6.696;2023-05-03T03:44:01;1.20;99.90
65692;DHT22;52411;52.716;6.696;2023-05-03T03:46:27;1.20;99.90
65692;DHT22;52411;52.716;6.696;2023-05-03T03:48:52;1.10;99.90
65692;DHT22;52411;52.716;6.696;2023-05-03T03:51:18;1.20;99.90
65692;DHT22;52411;52.716;6.696;2023-05-03T03:53:43;1.10;99.90
65692;DHT22;52411;52.716;6.696;2023-05-03T03:56:08;1.10;99.90
65692;DHT22;52411;52.716;6.696;2023-05-03T03:58:34;1.10;99.90
65692;DHT22;52411;52.716;6.696;2023-05-03T04:01:00;1.10;99.90
65692;DHT22;52411;52.716;6.696;2023-05-03T04:03:25;1.10;99.90
65692;DHT22;52411;52.716;6.696;2023-05-03T04:05:51;1.10;99.90
65692;DHT22;52411;52.716;6.696;2023-05-03T04:08:17;1.10;99.90
65692;DHT22;52411;52.716;6.696;2023-05-03T04:10:43;1.10;99.90
65692;DHT22;52411;52.716;6.696;2023-05-03T04:13:09;1.10;99.90
65692;DHT22;52411;52.716;6.696;2023-05-03T04:15:34;1.10;99.90
65692;DHT22;52411;52.716;6.696;2023-05-03T04:18:00;1.10;99.90
65692;DHT22;52411;52.716;6.696;2023-05-03T04:20:25;1.20;99.90
65692;DHT22;52411;52.716;6.696;2023-05-03T04:22:51;1.20;99.90
65692;DHT22;52411;52.716;6.696;2023-05-03T04:25:16;1.20;99.90
65692;DHT22;52411;52.716;6.696;2023-05-03T04:27:43;1.30;99.90
65692;DHT22;52411;52.716;6.696;2023-05-03T04:30:08;1.30;99.90
65692;DHT22;52411;52.716;6.696;2023-05-03T04:32:35;1.30;99.90
65692;DHT22;52411;52.716;6.696;2023-05-03T04:35:04;1.30;99.90
65692;DHT22;52411;52.716;6.696;2023-05-03T04:37:34;1.40;99.90
65692;DHT22;52411;52.716;6.696;2023-05-03T04:39:59;1.40;99.90
65692;DHT22;52411;52.716;6.696;2023-05-03T04:42:25;1.40;99.90
65692;DHT22;52411;52.716;6.696;2023-05-03T04:44:51;1.40;99.90
65692;DHT22;52411;52.716;6.696;2023-05-03T04:47:16;1.40;99.90
65692;DHT22;52411;52.716;6.696;2023-05-03T04:49:42;1.50;99.90
65692;DHT22;52411;52.716;6.696;2023-05-03T04:52:08;1.50;99.90
65692;DHT22;52411;52.716;6.696;2023-05-03T04:54:34;1.50;99.90
65692;DHT22;52411;52.716;6.696;2023-05-03T04:57:00;1.50;99.90
65692;DHT22;52411;52.716;6.696;2023-05-03T04:59:25;1.50;99.90
65692;DHT22;52411;52.716;6.696;2023-05-03T05:01:51;1.60;99.90
65692;DHT22;52411;52.716;6.696;2023-05-03T05:04:16;1.70;99.90
65692;DHT22;52411;52.716;6.696;2023-05-03T05:06:42;1.70;99.90
65692;DHT22;52411;52.716;6.696;2023-05-03T05:09:16;1.80;99.90
65692;DHT22;52411;52.716;6.696;2023-05-03T05:11:44;1.80;99.90
65692;DHT22;52411;52.716;6.696;2023-05-03T05:14:10;1.90;99.90
65692;DHT22;52411;52.716;6.696;2023-05-03T05:16:35;1.90;99.90
65692;DHT22;52411;52.716;6.696;2023-05-03T05:19:00;1.90;99.90
65692;DHT22;52411;52.716;6.696;2023-05-03T05:21:26;2.00;99.90
65692;DHT22;52411;52.716;6.696;2023-05-03T05:23:52;2.00;99.90
65692;DHT22;52411;52.716;6.696;2023-05-03T05:26:18;2.00;99.90
65692;DHT22;52411;52.716;6.696;2023-05-03T05:28:43;2.20;99.90
65692;DHT22;52411;52.716;6.696;2023-05-03T05:31:09;2.20;99.90
65692;DHT22;52411;52.716;6.696;2023-05-03T05:33:34;2.30;99.90
65692;DHT22;52411;52.716;6.696;2023-05-03T05:36:00;2.40;99.90
65692;DHT22;52411;52.716;6.696;2023-05-03T05:38:25;2.60;99.90
65692;DHT22;52411;52.716;6.696;2023-05-03T05:40:51;2.70;99.90
65692;DHT22;52411;52.716;6.696;2023-05-03T05:43:17;2.80;99.90
65692;DHT22;52411;52.716;6.696;2023-05-03T05:45:43;3.00;99.90
65692;DHT22;52411;52.716;6.696;2023-05-03T05:48:08;3.10;99.90
65692;DHT22;52411;52.716;6.696;2023-05-03T05:50:34;3.20;99.90
65692;DHT22;52411;52.716;6.696;2023-05-03T05:52:59;3.40;99.90
65692;DHT22;52411;52.716;6.696;2023-05-03T05:55:26;3.50;99.90
65692;DHT22;52411;52.716;6.696;2023-05-03T05:57:51;3.60;99.90
65692;DHT22;52411;52.716;6.696;2023-05-03T06:00:17;3.80;99.90
65692;DHT22;52411;52.716;6.696;2023-05-03T06:02:43;3.90;99.90
65692;DHT22;52411;52.716;6.696;2023-05-03T06:05:09;4.10;99.90
65692;DHT22;52411;52.716;6.696;2023-05-03T06:07:35;4.20;99.90
65692;DHT22;52411;52.716;6.696;2023-05-03T06:10:01;4.30;99.90
65692;DHT22;52411;52.716;6.696;2023-05-03T06:12:27;4.40;99.90
65692;DHT22;52411;52.716;6.696;2023-05-03T06:14:52;4.50;99.90
65692;DHT22;52411;52.716;6.696;2023-05-03T06:17:18;4.60;99.90
65692;DHT22;52411;52.716;6.696;2023-05-03T06:19:43;4.80;99.90
65692;DHT22;52411;52.716;6.696;2023-05-03T06:22:09;4.90;99.90
65692;DHT22;52411;52.716;6.696;2023-05-03T06:24:35;5.00;99.90
65692;DHT22;52411;52.716;6.696;2023-05-03T06:27:01;5.10;99.90
65692;DHT22;52411;52.716;6.696;2023-05-03T06:29:27;5.20;99.90
65692;DHT22;52411;52.716;6.696;2023-05-03T06:31:53;5.40;99.90
65692;DHT22;52411;52.716;6.696;2023-05-03T06:34:19;5.50;99.90
65692;DHT22;52411;52.716;6.696;2023-05-03T06:36:46;5.70;99.90
65692;DHT22;52411;52.716;6.696;2023-05-03T06:39:11;5.80;99.90
65692;DHT22;52411;52.716;6.696;2023-05-03T06:41:37;5.90;99.90
65692;DHT22;52411;52.716;6.696;2023-05-03T06:44:02;6.00;99.90
65692;DHT22;52411;52.716;6.696;2023-05-03T06:46:34;6.10;99.90
65692;DHT22;52411;52.716;6.696;2023-05-03T06:48:59;6.20;99.90
65692;DHT22;52411;52.716;6.696;2023-05-03T06:51:25;6.40;99.90
65692;DHT22;52411;52.716;6.696;2023-05-03T06:53:56;6.50;99.90
65692;DHT22;52411;52.716;6.696;2023-05-03T06:56:24;6.70;99.90
65692;DHT22;52411;52.716;6.696;2023-05-03T06:58:50;6.90;99.90
65692;DHT22;52411;52.716;6.696;2023-05-03T07:01:16;7.10;99.90
65692;DHT22;52411;52.716;6.696;2023-05-03T07:03:43;7.20;99.90
65692;DHT22;52411;52.716;6.696;2023-05-03T07:06:08;7.30;99.90
65692;DHT22;52411;52.716;6.696;2023-05-03T07:08:34;7.50;99.90
65692;DHT22;52411;52.716;6.696;2023-05-03T07:11:00;7.70;99.90
65692;DHT22;52411;52.716;6.696;2023-05-03T07:13:25;7.80;99.90
65692;DHT22;52411;52.716;6.696;2023-05-03T07:15:51;8.00;99.90
65692;DHT22;52411;52.716;6.696;2023-05-03T07:18:16;8.10;99.90
65692;DHT22;52411;52.716;6.696;2023-05-03T07:20:41;8.10;99.90
65692;DHT22;52411;52.716;6.696;2023-05-03T07:23:07;8.30;99.90
65692;DHT22;52411;52.716;6.696;2023-05-03T07:25:32;8.40;99.90
65692;DHT22;52411;52.716;6.696;2023-05-03T07:27:58;8.60;99.90
65692;DHT22;52411;52.716;6.696;2023-05-03T07:30:24;8.70;99.90
65692;DHT22;52411;52.716;6.696;2023-05-03T07:32:50;8.80;99.90
65692;DHT22;52411;52.716;6.696;2023-05-03T07:35:15;8.90;99.90
65692;DHT22;52411;52.716;6.696;2023-05-03T07:37:41;9.00;99.90
65692;DHT22;52411;52.716;6.696;2023-05-03T07:40:06;9.10;99.90
65692;DHT22;52411;52.716;6.696;2023-05-03T07:42:32;9.10;99.90
65692;DHT22;52411;52.716;6.696;2023-05-03T07:44:58;9.20;99.90
65692;DHT22;52411;52.716;6.696;2023-05-03T07:47:25;9.30;99.90
65692;DHT22;52411;52.716;6.696;2023-05-03T07:49:52;9.40;99.90
65692;DHT22;52411;52.716;6.696;2023-05-03T07:52:17;9.50;99.90
65692;DHT22;52411;52.716;6.696;2023-05-03T07:54:43;9.60;99.90
65692;DHT22;52411;52.716;6.696;2023-05-03T07:57:13;9.70;99.90
65692;DHT22;52411;52.716;6.696;2023-05-03T07:59:39;9.80;99.90
65692;DHT22;52411;52.716;6.696;2023-05-03T08:02:04;10.10;99.90
65692;DHT22;52411;52.716;6.696;2023-05-03T08:04:30;10.30;99.90
65692;DHT22;52411;52.716;6.696;2023-05-03T08:06:58;10.30;99.90
65692;DHT22;52411;52.716;6.696;2023-05-03T08:09:24;10.50;99.90
65692;DHT22;52411;52.716;6.696;2023-05-03T08:11:49;10.40;99.90
65692;DHT22;52411;52.716;6.696;2023-05-03T08:14:15;10.50;99.90
65692;DHT22;52411;52.716;6.696;2023-05-03T08:16:41;10.40;99.90
65692;DHT22;52411;52.716;6.696;2023-05-03T08:19:06;10.30;99.90
65692;DHT22;52411;52.716;6.696;2023-05-03T08:21:32;10.30;99.90
65692;DHT22;52411;52.716;6.696;2023-05-03T08:23:59;10.30;99.90
65692;DHT22;52411;52.716;6.696;2023-05-03T08:26:25;10.30;99.90
65692;DHT22;52411;52.716;6.696;2023-05-03T08:28:52;10.30;99.90
65692;DHT22;52411;52.716;6.696;2023-05-03T08:31:18;10.30;99.90
65692;DHT22;52411;52.716;6.696;2023-05-03T08:33:44;10.30;99.90
65692;DHT22;52411;52.716;6.696;2023-05-03T08:36:09;10.40;99.90
65692;DHT22;52411;52.716;6.696;2023-05-03T08:38:35;10.50;99.90
65692;DHT22;52411;52.716;6.696;2023-05-03T08:41:13;10.40;99.90
65692;DHT22;52411;52.716;6.696;2023-05-03T08:43:42;10.40;99.90
65692;DHT22;52411;52.716;6.696;2023-05-03T08:46:09;10.40;99.90
65692;DHT22;52411;52.716;6.696;2023-05-03T08:48:35;10.50;99.90
65692;DHT22;52411;52.716;6.696;2023-05-03T08:51:02;10.50;99.90
65692;DHT22;52411;52.716;6.696;2023-05-03T08:53:28;10.70;99.90
65692;DHT22;52411;52.716;6.696;2023-05-03T08:55:54;10.90;99.90
65692;DHT22;52411;52.716;6.696;2023-05-03T08:58:20;11.00;99.90
65692;DHT22;52411;52.716;6.696;2023-05-03T09:00:45;10.90;99.90
65692;DHT22;52411;52.716;6.696;2023-05-03T09:03:11;10.90;99.90
65692;DHT22;52411;52.716;6.696;2023-05-03T09:05:36;10.80;99.90
65692;DHT22;52411;52.716;6.696;2023-05-03T09:08:08;10.70;99.90
65692;DHT22;52411;52.716;6.696;2023-05-03T09:10:37;10.70;99.90
65692;DHT22;52411;52.716;6.696;2023-05-03T09:13:04;10.80;99.90
65692;DHT22;52411;52.716;6.696;2023-05-03T09:15:33;10.90;99.90
65692;DHT22;52411;52.716;6.696;2023-05-03T09:18:05;11.00;99.90
65692;DHT22;52411;52.716;6.696;2023-05-03T09:20:34;11.10;99.90
65692;DHT22;52411;52.716;6.696;2023-05-03T09:23:00;11.20;99.90
65692;DHT22;52411;52.716;6.696;2023-05-03T09:25:42;11.30;99.90
65692;DHT22;52411;52.716;6.696;2023-05-03T09:28:07;11.40;99.90
65692;DHT22;52411;52.716;6.696;2023-05-03T09:30:33;11.20;98.90
65692;DHT22;52411;52.716;6.696;2023-05-03T09:32:58;11.40;99.90
65692;DHT22;52411;52.716;6.696;2023-05-03T09:35:24;11.60;99.90
65692;DHT22;52411;52.716;6.696;2023-05-03T09:37:49;11.90;99.40
65692;DHT22;52411;52.716;6.696;2023-05-03T09:40:15;12.10;99.90
65692;DHT22;52411;52.716;6.696;2023-05-03T09:45:26;12.40;99.90
65692;DHT22;52411;52.716;6.696;2023-05-03T09:47:52;12.10;99.50
65692;DHT22;52411;52.716;6.696;2023-05-03T09:50:20;12.00;97.20
65692;DHT22;52411;52.716;6.696;2023-05-03T09:52:46;12.10;99.90
65692;DHT22;52411;52.716;6.696;2023-05-03T09:55:14;12.00;98.50
65692;DHT22;52411;52.716;6.696;2023-05-03T09:57:41;11.80;99.90
65692;DHT22;52411;52.716;6.696;2023-05-03T10:00:07;12.00;98.60
65692;DHT22;52411;52.716;6.696;2023-05-03T10:02:34;12.30;99.90
65692;DHT22;52411;52.716;6.696;2023-05-03T10:05:00;12.40;99.90
65692;DHT22;52411;52.716;6.696;2023-05-03T10:07:25;12.40;99.30
65692;DHT22;52411;52.716;6.696;2023-05-03T10:09:51;12.70;99.30
65692;DHT22;52411;52.716;6.696;2023-05-03T10:12:17;12.70;98.40
65692;DHT22;52411;52.716;6.696;2023-05-03T10:14:44;12.90;99.50
65692;DHT22;52411;52.716;6.696;2023-05-03T10:17:17;13.20;99.90
65692;DHT22;52411;52.716;6.696;2023-05-03T10:19:51;13.30;98.20
65692;DHT22;52411;52.716;6.696;2023-05-03T10:22:18;13.60;99.90
65692;DHT22;52411;52.716;6.696;2023-05-03T10:27:21;13.70;95.80
65692;DHT22;52411;52.716;6.696;2023-05-03T10:29:47;13.60;97.70
65692;DHT22;52411;52.716;6.696;2023-05-03T10:32:33;13.60;97.90
65692;DHT22;52411;52.716;6.696;2023-05-03T10:35:03;13.40;97.30
65692;DHT22;52411;52.716;6.696;2023-05-03T10:37:31;13.10;96.70
65692;DHT22;52411;52.716;6.696;2023-05-03T10:40:04;12.80;95.80
65692;DHT22;52411;52.716;6.696;2023-05-03T10:42:29;12.60;98.10
65692;DHT22;52411;52.716;6.696;2023-05-03T10:44:55;12.70;97.80
65692;DHT22;52411;52.716;6.696;2023-05-03T10:47:22;12.70;98.30
65692;DHT22;52411;52.716;6.696;2023-05-03T10:57:36;12.80;98.30
65692;DHT22;52411;52.716;6.696;2023-05-03T11:00:02;12.90;99.00
65692;DHT22;52411;52.716;6.696;2023-05-03T11:02:32;13.00;97.30
65692;DHT22;52411;52.716;6.696;2023-05-03T11:05:01;13.00;96.20
65692;DHT22;52411;52.716;6.696;2023-05-03T11:07:29;13.20;96.50
65692;DHT22;52411;52.716;6.696;2023-05-03T11:09:56;13.20;98.20
65692;DHT22;52411;52.716;6.696;2023-05-03T11:12:21;13.30;96.10
65692;DHT22;52411;52.716;6.696;2023-05-03T11:14:49;13.10;96.40
65692;DHT22;52411;52.716;6.696;2023-05-03T11:17:14;13.10;96.30
65692;DHT22;52411;52.716;6.696;2023-05-03T11:19:40;13.20;98.70
65692;DHT22;52411;52.716;6.696;2023-05-03T11:22:06;13.40;98.20
65692;DHT22;52411;52.716;6.696;2023-05-03T11:24:32;13.80;99.90
65692;DHT22;52411;52.716;6.696;2023-05-03T11:26:58;13.90;98.80
65692;DHT22;52411;52.716;6.696;2023-05-03T11:29:24;13.90;98.00
65692;DHT22;52411;52.716;6.696;2023-05-03T11:31:50;13.90;96.50
65692;DHT22;52411;52.716;6.696;2023-05-03T11:34:16;13.90;95.50
65692;DHT22;52411;52.716;6.696;2023-05-03T11:36:41;14.00;96.30
65692;DHT22;52411;52.716;6.696;2023-05-03T11:39:07;14.00;95.60
65692;DHT22;52411;52.716;6.696;2023-05-03T11:41:33;14.10;96.60
65692;DHT22;52411;52.716;6.696;2023-05-03T11:43:59;14.00;96.40
65692;DHT22;52411;52.716;6.696;2023-05-03T11:46:26;14.00;93.80
65692;DHT22;52411;52.716;6.696;2023-05-03T11:48:52;14.10;94.60
65692;DHT22;52411;52.716;6.696;2023-05-03T11:51:21;13.90;92.50
65692;DHT22;52411;52.716;6.696;2023-05-03T11:53:47;13.80;92.80
65692;DHT22;52411;52.716;6.696;2023-05-03T11:56:13;13.80;93.30
65692;DHT22;52411;52.716;6.696;2023-05-03T11:58:55;13.80;96.30
65692;DHT22;52411;52.716;6.696;2023-05-03T12:01:28;13.90;95.30
65692;DHT22;52411;52.716;6.696;2023-05-03T12:03:57;14.10;94.80
65692;DHT22;52411;52.716;6.696;2023-05-03T12:06:23;14.30;96.20
65692;DHT22;52411;52.716;6.696;2023-05-03T12:08:49;14.40;95.10
65692;DHT22;52411;52.716;6.696;2023-05-03T12:11:14;14.40;95.50
65692;DHT22;52411;52.716;6.696;2023-05-03T12:13:40;14.70;97.20
65692;DHT22;52411;52.716;6.696;2023-05-03T12:16:06;14.70;95.70
65692;DHT22;52411;52.716;6.696;2023-05-03T12:18:45;14.90;95.40
65692;DHT22;52411;52.716;6.696;2023-05-03T12:21:11;14.90;93.30
65692;DHT22;52411;52.716;6.696;2023-05-03T12:23:39;15.10;94.00
65692;DHT22;52411;52.716;6.696;2023-05-03T12:26:05;15.00;92.70
65692;DHT22;52411;52.716;6.696;2023-05-03T12:28:31;15.00;92.40
65692;DHT22;52411;52.716;6.696;2023-05-03T12:30:58;15.00;93.90
65692;DHT22;52411;52.716;6.696;2023-05-03T12:33:23;14.90;93.60
65692;DHT22;52411;52.716;6.696;2023-05-03T12:35:49;15.00;92.80
65692;DHT22;52411;52.716;6.696;2023-05-03T12:38:15;15.10;92.40
65692;DHT22;52411;52.716;6.696;2023-05-03T12:40:41;15.10;91.80
65692;DHT22;52411;52.716;6.696;2023-05-03T12:43:06;15.20;94.90
65692;DHT22;52411;52.716;6.696;2023-05-03T12:45:32;15.20;92.40
65692;DHT22;52411;52.716;6.696;2023-05-03T12:47:57;15.30;91.40
65692;DHT22;52411;52.716;6.696;2023-05-03T12:50:23;15.40;92.10
65692;DHT22;52411;52.716;6.696;2023-05-03T12:52:49;15.50;93.90
65692;DHT22;52411;52.716;6.696;2023-05-03T12:55:15;15.60;95.40
65692;DHT22;52411;52.716;6.696;2023-05-03T12:57:40;15.70;94.00
65692;DHT22;52411;52.716;6.696;2023-05-03T13:00:07;15.60;93.10
65692;DHT22;52411;52.716;6.696;2023-05-03T13:02:33;15.80;92.80
65692;DHT22;52411;52.716;6.696;2023-05-03T13:04:59;16.00;93.80
65692;DHT22;52411;52.716;6.696;2023-05-03T13:07:25;16.10;93.00
65692;DHT22;52411;52.716;6.696;2023-05-03T13:09:52;16.10;91.30
65692;DHT22;52411;52.716;6.696;2023-05-03T13:12:18;16.20;94.30
65692;DHT22;52411;52.716;6.696;2023-05-03T13:14:46;16.10;91.30
65692;DHT22;52411;52.716;6.696;2023-05-03T13:17:12;16.20;94.50
65692;DHT22;52411;52.716;6.696;2023-05-03T13:19:39;16.10;91.60
65692;DHT22;52411;52.716;6.696;2023-05-03T13:22:04;16.00;90.90
65692;DHT22;52411;52.716;6.696;2023-05-03T13:24:30;16.00;93.00
65692;DHT22;52411;52.716;6.696;2023-05-03T13:26:55;16.00;91.10
65692;DHT22;52411;52.716;6.696;2023-05-03T13:29:21;16.20;92.00
65692;DHT22;52411;52.716;6.696;2023-05-03T13:31:47;16.20;92.00
65692;DHT22;52411;52.716;6.696;2023-05-03T13:34:12;16.40;92.00
65692;DHT22;52411;52.716;6.696;2023-05-03T13:36:38;16.40;92.60
65692;DHT22;52411;52.716;6.696;2023-05-03T13:39:03;16.20;92.40
65692;DHT22;52411;52.716;6.696;2023-05-03T13:41:30;16.10;90.70
65692;DHT22;52411;52.716;6.696;2023-05-03T13:43:56;16.20;93.50
65692;DHT22;52411;52.716;6.696;2023-05-03T13:46:21;16.20;92.70
65692;DHT22;52411;52.716;6.696;2023-05-03T13:48:47;16.40;92.30
65692;DHT22;52411;52.716;6.696;2023-05-03T13:51:13;16.50;91.80
65692;DHT22;52411;52.716;6.696;2023-05-03T13:53:38;16.50;91.00
65692;DHT22;52411;52.716;6.696;2023-05-03T13:56:04;16.50;92.00
65692;DHT22;52411;52.716;6.696;2023-05-03T13:58:30;16.40;91.30
65692;DHT22;52411;52.716;6.696;2023-05-03T14:00:56;16.50;91.40
65692;DHT22;52411;52.716;6.696;2023-05-03T14:03:23;16.50;90.00
65692;DHT22;52411;52.716;6.696;2023-05-03T14:05:48;16.40;87.60
65692;DHT22;52411;52.716;6.696;2023-05-03T14:08:14;16.60;90.50
65692;DHT22;52411;52.716;6.696;2023-05-03T14:10:41;16.80;89.70
65692;DHT22;52411;52.716;6.696;2023-05-03T14:13:07;16.80;90.60
65692;DHT22;52411;52.716;6.696;2023-05-03T14:15:36;16.70;87.10
65692;DHT22;52411;52.716;6.696;2023-05-03T14:18:02;16.70;86.70
65692;DHT22;52411;52.716;6.696;2023-05-03T14:20:27;16.50;87.70
65692;DHT22;52411;52.716;6.696;2023-05-03T14:22:53;16.70;91.30
65692;DHT22;52411;52.716;6.696;2023-05-03T14:25:19;17.00;88.80
65692;DHT22;52411;52.716;6.696;2023-05-03T14:27:44;17.20;89.40
65692;DHT22;52411;52.716;6.696;2023-05-03T14:30:10;17.40;88.10
65692;DHT22;52411;52.716;6.696;2023-05-03T14:32:35;17.30;83.30
65692;DHT22;52411;52.716;6.696;2023-05-03T14:35:01;17.40;88.80
65692;DHT22;52411;52.716;6.696;2023-05-03T14:37:26;17.20;82.50
65692;DHT22;52411;52.716;6.696;2023-05-03T14:39:52;17.30;87.00
65692;DHT22;52411;52.716;6.696;2023-05-03T14:42:17;17.20;83.00
65692;DHT22;52411;52.716;6.696;2023-05-03T14:44:43;17.60;84.40
65692;DHT22;52411;52.716;6.696;2023-05-03T14:47:08;17.70;87.00
65692;DHT22;52411;52.716;6.696;2023-05-03T14:49:34;17.80;81.40
65692;DHT22;52411;52.716;6.696;2023-05-03T14:52:07;18.00;83.00
65692;DHT22;52411;52.716;6.696;2023-05-03T14:54:33;18.00;78.80
65692;DHT22;52411;52.716;6.696;2023-05-03T14:56:58;18.20;81.80
65692;DHT22;52411;52.716;6.696;2023-05-03T14:59:25;18.40;79.40
65692;DHT22;52411;52.716;6.696;2023-05-03T15:01:51;18.40;77.40
65692;DHT22;52411;52.716;6.696;2023-05-03T15:04:17;18.70;72.10
65692;DHT22;52411;52.716;6.696;2023-05-03T15:06:43;18.90;74.10
65692;DHT22;52411;52.716;6.696;2023-05-03T15:09:08;18.90;71.10
65692;DHT22;52411;52.716;6.696;2023-05-03T15:11:37;18.80;70.90
65692;DHT22;52411;52.716;6.696;2023-05-03T15:14:02;19.00;72.20
65692;DHT22;52411;52.716;6.696;2023-05-03T15:16:28;19.20;68.70
65692;DHT22;52411;52.716;6.696;2023-05-03T15:18:53;19.20;67.20
65692;DHT22;52411;52.716;6.696;2023-05-03T15:21:19;19.50;68.60
65692;DHT22;52411;52.716;6.696;2023-05-03T15:23:45;19.70;68.60
65692;DHT22;52411;52.716;6.696;2023-05-03T15:26:11;20.20;66.60
65692;DHT22;52411;52.716;6.696;2023-05-03T15:28:37;20.60;67.80
65692;DHT22;52411;52.716;6.696;2023-05-03T15:31:02;20.30;61.20
65692;DHT22;52411;52.716;6.696;2023-05-03T15:33:28;20.00;60.90
65692;DHT22;52411;52.716;6.696;2023-05-03T15:35:54;19.90;64.20
65692;DHT22;52411;52.716;6.696;2023-05-03T15:38:20;19.90;63.60
65692;DHT22;52411;52.716;6.696;2023-05-03T15:40:45;20.00;67.80
65692;DHT22;52411;52.716;6.696;2023-05-03T15:43:11;20.30;63.00
65692;DHT22;52411;52.716;6.696;2023-05-03T15:45:36;20.40;61.20
65692;DHT22;52411;52.716;6.696;2023-05-03T15:48:02;20.30;59.40
65692;DHT22;52411;52.716;6.696;2023-05-03T15:50:28;20.40;60.60
65692;DHT22;52411;52.716;6.696;2023-05-03T15:52:54;20.60;62.20
65692;DHT22;52411;52.716;6.696;2023-05-03T15:55:21;20.60;62.30
65692;DHT22;52411;52.716;6.696;2023-05-03T15:57:46;21.00;58.30
65692;DHT22;52411;52.716;6.696;2023-05-03T16:00:14;21.10;58.80